createdAt,value
2022-09-20T00:00:01.889Z,1016.97
2022-09-20T00:01:01.880Z,1017.01
2022-09-20T00:02:01.853Z,1017.00
2022-09-20T00:03:01.832Z,1017.03
2022-09-20T00:04:02.466Z,1017.01
2022-09-20T00:05:02.516Z,1017.02
2022-09-20T00:06:02.456Z,1017.01
2022-09-20T00:07:01.851Z,1017.03
2022-09-20T00:08:01.954Z,1017.05
2022-09-20T00:09:02.428Z,1017.02
2022-09-20T00:10:02.539Z,1017.02
2022-09-20T00:11:01.786Z,1016.99
2022-09-20T00:12:01.721Z,1016.99
2022-09-20T00:13:01.742Z,1017.00
2022-09-20T00:14:02.397Z,1016.97
2022-09-20T00:15:02.380Z,1017.00
2022-09-20T00:16:01.736Z,1016.98
2022-09-20T00:17:02.422Z,1017.01
2022-09-20T00:18:01.644Z,1017.01
2022-09-20T00:19:02.321Z,1017.02
2022-09-20T00:20:02.823Z,1017.00
2022-09-20T00:21:01.628Z,1017.02
2022-09-20T00:22:01.724Z,1017.00
2022-09-20T00:23:03.520Z,1016.97
2022-09-20T00:24:02.255Z,1016.99
2022-09-20T00:25:02.238Z,1016.99
2022-09-20T00:26:01.556Z,1016.97
2022-09-20T00:27:01.656Z,1016.99
2022-09-20T00:28:01.828Z,1016.98
2022-09-20T00:29:01.581Z,1017.04
2022-09-20T00:30:02.197Z,1017.08
2022-09-20T00:31:02.188Z,1017.01
2022-09-20T00:32:02.674Z,1017.05
2022-09-20T00:33:02.157Z,1017.07
2022-09-20T00:34:02.248Z,1017.03
2022-09-20T00:35:01.487Z,1017.03
2022-09-20T00:36:01.497Z,1017.06
2022-09-20T00:37:01.510Z,1017.05
2022-09-20T00:38:01.438Z,1017.05
2022-09-20T00:39:01.454Z,1017.04
2022-09-20T00:40:01.646Z,1017.08
2022-09-20T00:41:01.518Z,1017.08
2022-09-20T00:42:02.060Z,1017.09
2022-09-20T00:43:02.051Z,1017.10
2022-09-20T00:44:02.039Z,1017.07
2022-09-20T00:45:01.447Z,1017.13
2022-09-20T00:46:02.116Z,1017.11
2022-09-20T00:47:02.023Z,1017.12
2022-09-20T00:48:01.370Z,1017.06
2022-09-20T00:49:01.991Z,1017.11
2022-09-20T00:50:01.973Z,1017.06
2022-09-20T00:51:01.302Z,1017.07
2022-09-20T00:52:01.320Z,1017.09
2022-09-20T00:53:01.271Z,1017.10
2022-09-20T00:54:01.962Z,1017.10
2022-09-20T00:55:01.926Z,1017.06
2022-09-20T00:56:01.255Z,1017.09
2022-09-20T00:57:01.310Z,1017.09
2022-09-20T00:58:01.245Z,1017.10
2022-09-20T00:59:01.215Z,1017.08
2022-09-20T01:00:01.896Z,1017.10
2022-09-20T01:01:01.942Z,1017.09
2022-09-20T01:02:01.309Z,1017.07
2022-09-20T01:03:01.833Z,1017.01
2022-09-20T01:04:01.241Z,1017.08
2022-09-20T01:05:01.147Z,1017.03
2022-09-20T01:06:02.607Z,1016.99
2022-09-20T01:07:01.306Z,1016.98
2022-09-20T01:08:01.164Z,1016.95
2022-09-20T01:09:01.197Z,1017.01
2022-09-20T01:10:01.215Z,1016.99
2022-09-20T01:11:01.756Z,1017.00
2022-09-20T01:12:01.095Z,1016.99
2022-09-20T01:13:01.754Z,1016.98
2022-09-20T01:14:01.716Z,1016.98
2022-09-20T01:15:02.398Z,1017.07
2022-09-20T01:16:01.084Z,1017.00
2022-09-20T01:17:01.102Z,1017.05
2022-09-20T01:18:00.979Z,1017.02
2022-09-20T01:19:00.988Z,1017.02
2022-09-20T01:20:01.076Z,1017.05
2022-09-20T01:21:01.016Z,1017.13
2022-09-20T01:22:01.017Z,1017.09
2022-09-20T01:23:01.068Z,1017.07
2022-09-20T01:24:00.957Z,1017.08
2022-09-20T01:25:00.988Z,1017.09
2022-09-20T01:26:00.919Z,1017.11
2022-09-20T01:27:02.359Z,1017.06
2022-09-20T01:28:00.929Z,1017.12
2022-09-20T01:29:00.950Z,1017.07
2022-09-20T01:30:00.910Z,1017.07
2022-09-20T01:31:00.876Z,1017.09
2022-09-20T01:32:00.921Z,1017.07
2022-09-20T01:33:00.895Z,1017.06
2022-09-20T01:34:00.870Z,1017.09
2022-09-20T01:35:00.815Z,1017.07
2022-09-20T01:36:00.824Z,1017.09
2022-09-20T01:37:00.819Z,1017.11
2022-09-20T01:38:01.471Z,1017.14
2022-09-20T01:39:01.446Z,1017.16
2022-09-20T01:40:00.955Z,1017.11
2022-09-20T01:41:00.762Z,1017.12
2022-09-20T01:42:00.830Z,1017.10
2022-09-20T01:43:00.981Z,1017.13
2022-09-20T01:44:01.402Z,1017.11
2022-09-20T01:45:00.712Z,1017.08
2022-09-20T01:46:02.318Z,1017.08
2022-09-20T01:47:01.633Z,1017.07
2022-09-20T01:48:00.743Z,1017.08
2022-09-20T01:49:01.364Z,1017.05
2022-09-20T01:50:01.332Z,1017.02
2022-09-20T01:51:00.769Z,1017.03
2022-09-20T01:52:00.756Z,1017.08
2022-09-20T01:53:00.885Z,1017.02
2022-09-20T01:54:00.669Z,1017.03
2022-09-20T01:55:00.619Z,1017.01
2022-09-20T01:56:00.605Z,1017.02
2022-09-20T01:57:01.247Z,1016.98
2022-09-20T01:58:00.617Z,1016.99
2022-09-20T01:59:19.741Z,1017.03
2022-09-20T02:00:01.595Z,1016.99
2022-09-20T02:01:00.588Z,1016.98
2022-09-20T02:02:01.240Z,1016.97
2022-09-20T02:03:00.856Z,1017.02
2022-09-20T02:04:01.258Z,1017.03
2022-09-20T02:05:00.487Z,1017.04
2022-09-20T02:06:00.507Z,1017.02
2022-09-20T02:07:00.478Z,1017.07
2022-09-20T02:08:01.408Z,1017.05
2022-09-20T02:09:01.387Z,1017.06
2022-09-20T02:10:00.559Z,1017.05
2022-09-20T02:11:01.099Z,1017.07
2022-09-20T02:12:01.093Z,1017.08
2022-09-20T02:13:01.100Z,1017.05
2022-09-20T02:14:01.840Z,1017.06
2022-09-20T02:15:00.389Z,1017.05
2022-09-20T02:16:00.410Z,1017.06
2022-09-20T02:17:00.436Z,1017.04
2022-09-20T02:18:01.030Z,1017.04
2022-09-20T02:19:01.027Z,1017.07
2022-09-20T02:20:01.015Z,1017.09
2022-09-20T02:21:00.322Z,1017.06
2022-09-20T02:22:00.420Z,1017.06
2022-09-20T02:23:01.023Z,1017.06
2022-09-20T02:24:00.965Z,1017.06
2022-09-20T02:25:01.221Z,1017.07
2022-09-20T02:26:00.949Z,1017.03
2022-09-20T02:27:00.944Z,1017.09
2022-09-20T02:28:00.931Z,1017.04
2022-09-20T02:29:00.281Z,1017.04
2022-09-20T02:30:00.939Z,1017.05
2022-09-20T02:31:00.894Z,1017.06
2022-09-20T02:32:00.932Z,1017.06
2022-09-20T02:33:00.191Z,1017.06
2022-09-20T02:34:00.855Z,1017.06
2022-09-20T02:35:00.213Z,1017.09
2022-09-20T02:36:00.836Z,1017.13
2022-09-20T02:37:00.155Z,1017.08
2022-09-20T02:38:00.155Z,1017.08
2022-09-20T02:39:00.126Z,1017.08
2022-09-20T02:40:00.957Z,1017.08
2022-09-20T02:41:00.796Z,1017.04
2022-09-20T02:42:00.108Z,1017.02
2022-09-20T02:43:00.769Z,1017.09
2022-09-20T02:44:00.755Z,1017.09
2022-09-20T02:45:00.061Z,1017.10
2022-09-20T02:46:00.267Z,1017.08
2022-09-20T02:47:00.716Z,1017.07
2022-09-20T02:48:00.064Z,1017.11
2022-09-20T02:49:00.697Z,1017.03
2022-09-20T02:50:00.686Z,1017.10
2022-09-20T02:51:00.004Z,1017.03
2022-09-20T02:52:00.006Z,1017.06
2022-09-20T02:53:00.657Z,1017.06
2022-09-20T02:54:00.176Z,1017.03
2022-09-20T02:55:00.637Z,1017.05
2022-09-20T02:55:59.941Z,1017.05
2022-09-20T02:57:00.610Z,1017.04
2022-09-20T02:57:59.961Z,1017.02
2022-09-20T02:59:00.589Z,1017.00
2022-09-20T02:59:59.941Z,1017.00
2022-09-20T03:01:00.650Z,1017.03
2022-09-20T03:01:59.958Z,1017.00
2022-09-20T03:03:01.319Z,1017.05
2022-09-20T03:03:59.978Z,1017.04
2022-09-20T03:04:59.859Z,1016.99
2022-09-20T03:05:59.830Z,1017.02
2022-09-20T03:06:59.823Z,1017.01
2022-09-20T03:08:02.241Z,1017.04
2022-09-20T03:08:59.802Z,1017.05
2022-09-20T03:09:59.822Z,1016.99
2022-09-20T03:11:00.467Z,1017.01
2022-09-20T03:11:59.831Z,1016.98
2022-09-20T03:13:01.222Z,1016.96
2022-09-20T03:14:00.441Z,1016.99
2022-09-20T03:14:59.793Z,1017.04
2022-09-20T03:15:59.871Z,1017.00
2022-09-20T03:17:00.445Z,1017.00
2022-09-20T03:17:59.724Z,1017.01
2022-09-20T03:19:00.385Z,1017.01
2022-09-20T03:19:59.683Z,1017.04
2022-09-20T03:20:59.693Z,1017.03
2022-09-20T03:21:59.710Z,1017.09
2022-09-20T03:22:59.633Z,1017.02
2022-09-20T03:23:59.645Z,1017.00
2022-09-20T03:25:00.315Z,1017.04
2022-09-20T03:26:00.303Z,1017.04
2022-09-20T03:26:59.625Z,1017.06
2022-09-20T03:27:59.654Z,1017.07
2022-09-20T03:29:00.264Z,1017.05
2022-09-20T03:29:59.600Z,1017.04
2022-09-20T03:30:59.565Z,1017.04
2022-09-20T03:32:00.298Z,1017.01
2022-09-20T03:33:00.229Z,1017.06
2022-09-20T03:33:59.650Z,1017.08
2022-09-20T03:34:59.578Z,1017.08
2022-09-20T03:36:00.468Z,1017.08
2022-09-20T03:37:00.207Z,1017.10
2022-09-20T03:37:59.507Z,1017.06
2022-09-20T03:38:59.499Z,1017.02
2022-09-20T03:40:00.348Z,1017.07
2022-09-20T03:41:00.140Z,1017.04
2022-09-20T03:41:59.458Z,1017.07
2022-09-20T03:42:59.436Z,1017.05
2022-09-20T03:43:59.469Z,1017.08
2022-09-20T03:44:59.426Z,1017.10
2022-09-20T03:45:59.625Z,1017.11
2022-09-20T03:47:00.079Z,1017.10
2022-09-20T03:47:59.387Z,1017.10
2022-09-20T03:49:00.063Z,1017.11
2022-09-20T03:49:59.639Z,1017.13
2022-09-20T03:51:00.028Z,1017.11
2022-09-20T03:52:00.914Z,1017.13
2022-09-20T03:52:59.319Z,1017.14
2022-09-20T03:53:59.299Z,1017.18
2022-09-20T03:54:59.367Z,1017.15
2022-09-20T03:55:59.322Z,1017.14
2022-09-20T03:56:59.431Z,1017.12
2022-09-20T03:57:59.311Z,1017.17
2022-09-20T03:58:59.527Z,1017.20
2022-09-20T03:59:59.280Z,1017.16
2022-09-20T04:00:59.335Z,1017.18
2022-09-20T04:02:01.168Z,1017.16
2022-09-20T04:02:59.641Z,1017.16
2022-09-20T04:03:59.317Z,1017.21
2022-09-20T04:04:59.266Z,1017.18
2022-09-20T04:05:59.192Z,1017.20
2022-09-20T04:06:59.191Z,1017.20
2022-09-20T04:07:59.212Z,1017.18
2022-09-20T04:08:59.839Z,1017.19
2022-09-20T04:09:59.930Z,1017.18
2022-09-20T04:10:59.163Z,1017.15
2022-09-20T04:11:59.804Z,1017.20
2022-09-20T04:12:59.797Z,1017.16
2022-09-20T04:13:59.783Z,1017.21
2022-09-20T04:14:59.775Z,1017.21
2022-09-20T04:15:59.854Z,1017.20
2022-09-20T04:16:59.119Z,1017.20
2022-09-20T04:17:59.744Z,1017.22
2022-09-20T04:18:59.745Z,1017.21
2022-09-20T04:20:00.475Z,1017.17
2022-09-20T04:20:59.014Z,1017.17
2022-09-20T04:21:59.770Z,1017.16
2022-09-20T04:22:59.017Z,1017.22
2022-09-20T04:23:59.675Z,1017.23
2022-09-20T04:24:59.945Z,1017.18
2022-09-20T04:25:59.655Z,1017.20
2022-09-20T04:26:58.975Z,1017.21
2022-09-20T04:27:59.058Z,1017.23
2022-09-20T04:28:58.936Z,1017.19
2022-09-20T04:29:59.606Z,1017.21
2022-09-20T04:30:59.589Z,1017.20
2022-09-20T04:31:59.642Z,1017.24
2022-09-20T04:32:59.568Z,1017.21
2022-09-20T04:33:59.859Z,1017.20
2022-09-20T04:35:00.297Z,1017.22
2022-09-20T04:35:58.858Z,1017.24
2022-09-20T04:36:58.858Z,1017.21
2022-09-20T04:37:59.811Z,1017.23
2022-09-20T04:38:59.779Z,1017.21
2022-09-20T04:39:58.873Z,1017.29
2022-09-20T04:40:58.817Z,1017.29
2022-09-20T04:41:58.800Z,1017.28
2022-09-20T04:43:00.238Z,1017.23
2022-09-20T04:43:58.791Z,1017.28
2022-09-20T04:44:59.449Z,1017.31
2022-09-20T04:45:59.499Z,1017.31
2022-09-20T04:46:58.749Z,1017.30
2022-09-20T04:47:58.750Z,1017.31
2022-09-20T04:48:58.729Z,1017.28
2022-09-20T04:50:00.193Z,1017.24
2022-09-20T04:50:58.682Z,1017.25
2022-09-20T04:51:58.800Z,1017.30
2022-09-20T04:52:59.631Z,1017.28
2022-09-20T04:53:59.360Z,1017.26
2022-09-20T04:54:59.498Z,1017.30
2022-09-20T04:55:59.341Z,1017.28
2022-09-20T04:56:58.638Z,1017.30
2022-09-20T04:57:59.382Z,1017.32
2022-09-20T04:58:58.720Z,1017.27
2022-09-20T04:59:59.290Z,1017.30
2022-09-20T05:00:59.310Z,1017.34
2022-09-20T05:01:59.636Z,1017.32
2022-09-20T05:02:58.581Z,1017.39
2022-09-20T05:03:58.614Z,1017.40
2022-09-20T05:04:58.572Z,1017.38
2022-09-20T05:05:59.491Z,1017.37
2022-09-20T05:06:59.474Z,1017.42
2022-09-20T05:07:59.203Z,1017.45
2022-09-20T05:08:59.473Z,1017.39
2022-09-20T05:09:59.173Z,1017.46
2022-09-20T05:10:58.505Z,1017.46
2022-09-20T05:11:59.424Z,1017.50
2022-09-20T05:12:58.464Z,1017.47
2022-09-20T05:13:59.399Z,1017.48
2022-09-20T05:14:59.135Z,1017.52
2022-09-20T05:15:59.306Z,1017.54
2022-09-20T05:16:59.171Z,1017.52
2022-09-20T05:17:59.098Z,1017.48
2022-09-20T05:18:58.425Z,1017.50
2022-09-20T05:19:59.078Z,1017.51
2022-09-20T05:20:58.443Z,1017.54
2022-09-20T05:21:58.496Z,1017.53
2022-09-20T05:22:59.206Z,1017.57
2022-09-20T05:23:58.402Z,1017.54
2022-09-20T05:24:59.198Z,1017.58
2022-09-20T05:25:59.018Z,1017.58
2022-09-20T05:26:59.154Z,1017.58
2022-09-20T05:27:59.302Z,1017.59
2022-09-20T05:28:59.135Z,1017.63
2022-09-20T05:30:01.060Z,1017.64
2022-09-20T05:30:58.976Z,1017.65
2022-09-20T05:31:59.205Z,1017.68
2022-09-20T05:32:59.088Z,1017.68
2022-09-20T05:33:59.207Z,1017.68
2022-09-20T05:34:58.909Z,1017.74
2022-09-20T05:36:00.201Z,1017.79
2022-09-20T05:36:58.899Z,1017.75
2022-09-20T05:37:59.179Z,1017.75
2022-09-20T05:39:01.424Z,1017.76
2022-09-20T05:39:59.354Z,1017.81
2022-09-20T05:40:58.850Z,1017.76
2022-09-20T05:41:59.117Z,1017.78
2022-09-20T05:42:59.060Z,1017.73
2022-09-20T05:43:58.999Z,1017.79
2022-09-20T05:44:58.820Z,1017.78
2022-09-20T05:45:58.956Z,1017.79
2022-09-20T05:46:58.131Z,1017.81
2022-09-20T05:47:58.183Z,1017.76
2022-09-20T05:48:59.012Z,1017.77
2022-09-20T05:49:58.080Z,1017.75
2022-09-20T05:51:03.105Z,1017.80
2022-09-20T05:52:00.118Z,1017.82
2022-09-20T05:52:58.729Z,1017.78
2022-09-20T05:53:59.962Z,1017.86
2022-09-20T05:54:58.014Z,1017.81
2022-09-20T05:55:58.684Z,1017.84
2022-09-20T05:56:58.681Z,1017.83
2022-09-20T05:57:58.043Z,1017.86
2022-09-20T05:58:58.655Z,1017.86
2022-09-20T05:59:57.994Z,1017.83
2022-09-20T06:00:58.665Z,1017.83
2022-09-20T06:01:58.023Z,1017.86
2022-09-20T06:02:59.875Z,1017.85
2022-09-20T06:03:59.054Z,1017.85
2022-09-20T06:04:59.935Z,1017.87
2022-09-20T06:05:57.913Z,1017.86
2022-09-20T06:06:57.966Z,1017.85
2022-09-20T06:07:59.855Z,1017.85
2022-09-20T06:08:58.854Z,1017.88
2022-09-20T06:09:59.883Z,1017.86
2022-09-20T06:10:58.532Z,1017.86
2022-09-20T06:11:59.775Z,1017.91
2022-09-20T06:12:58.503Z,1017.87
2022-09-20T06:13:57.856Z,1017.91
2022-09-20T06:14:59.745Z,1017.93
2022-09-20T06:15:59.758Z,1017.89
2022-09-20T06:16:59.728Z,1017.88
2022-09-20T06:17:58.707Z,1017.94
2022-09-20T06:18:58.717Z,1017.96
2022-09-20T06:19:57.766Z,1017.94
2022-09-20T06:20:58.697Z,1017.99
2022-09-20T06:22:03.052Z,1017.97
2022-09-20T06:22:59.661Z,1017.97
2022-09-20T06:23:59.699Z,1017.98
2022-09-20T06:24:59.148Z,1018.06
2022-09-20T06:25:58.672Z,1018.05
2022-09-20T06:26:58.631Z,1018.06
2022-09-20T06:27:59.628Z,1018.06
2022-09-20T06:28:58.698Z,1018.08
2022-09-20T06:29:59.615Z,1018.14
2022-09-20T06:30:58.379Z,1018.14
2022-09-20T06:31:57.641Z,1018.14
2022-09-20T06:32:59.540Z,1018.15
2022-09-20T06:33:58.280Z,1018.17
2022-09-20T06:34:59.580Z,1018.14
2022-09-20T06:35:59.552Z,1018.18
2022-09-20T06:36:58.500Z,1018.17
2022-09-20T06:37:58.517Z,1018.16
2022-09-20T06:38:59.481Z,1018.16
2022-09-20T06:39:59.549Z,1018.17
2022-09-20T06:40:58.201Z,1018.11
2022-09-20T06:41:58.493Z,1018.14
2022-09-20T06:42:59.431Z,1018.13
2022-09-20T06:43:57.544Z,1018.14
2022-09-20T06:44:59.413Z,1018.17
2022-09-20T06:45:59.494Z,1018.18
2022-09-20T06:46:58.422Z,1018.19
2022-09-20T06:47:58.123Z,1018.27
2022-09-20T06:48:58.114Z,1018.31
2022-09-20T06:49:59.442Z,1018.31
2022-09-20T06:50:58.354Z,1018.32
2022-09-20T06:51:59.462Z,1018.29
2022-09-20T06:52:58.843Z,1018.30
2022-09-20T06:53:59.318Z,1018.38
2022-09-20T06:54:59.305Z,1018.39
2022-09-20T06:55:58.326Z,1018.38
2022-09-20T06:56:57.366Z,1018.35
2022-09-20T06:57:59.305Z,1018.41
2022-09-20T06:58:57.328Z,1018.41
2022-09-20T06:59:57.349Z,1018.38
2022-09-20T07:00:58.014Z,1018.38
2022-09-20T07:01:57.378Z,1018.43
2022-09-20T07:02:57.298Z,1018.45
2022-09-20T07:03:57.946Z,1018.42
2022-09-20T07:04:57.266Z,1018.45
2022-09-20T07:05:59.188Z,1018.45
2022-09-20T07:06:57.930Z,1018.49
2022-09-20T07:07:57.920Z,1018.45
2022-09-20T07:08:57.907Z,1018.50
2022-09-20T07:09:59.189Z,1018.44
2022-09-20T07:10:57.930Z,1018.50
2022-09-20T07:11:57.222Z,1018.48
2022-09-20T07:12:57.858Z,1018.57
2022-09-20T07:13:57.849Z,1018.59
2022-09-20T07:14:57.847Z,1018.57
2022-09-20T07:15:57.267Z,1018.53
2022-09-20T07:16:57.209Z,1018.50
2022-09-20T07:17:58.051Z,1018.53
2022-09-20T07:18:57.794Z,1018.56
2022-09-20T07:19:57.785Z,1018.55
2022-09-20T07:20:57.766Z,1018.57
2022-09-20T07:21:58.132Z,1018.51
2022-09-20T07:22:57.077Z,1018.48
2022-09-20T07:23:57.732Z,1018.63
2022-09-20T07:24:57.732Z,1018.64
2022-09-20T07:25:57.035Z,1018.71
2022-09-20T07:26:57.710Z,1018.70
2022-09-20T07:27:57.682Z,1018.69
2022-09-20T07:28:57.004Z,1018.72
2022-09-20T07:29:57.675Z,1018.71
2022-09-20T07:30:57.665Z,1018.82
2022-09-20T07:31:57.684Z,1018.86
2022-09-20T07:32:56.955Z,1018.79
2022-09-20T07:33:57.073Z,1018.77
2022-09-20T07:34:57.024Z,1018.77
2022-09-20T07:35:57.606Z,1018.72
2022-09-20T07:36:57.597Z,1018.76
2022-09-20T07:37:57.595Z,1018.82
2022-09-20T07:38:56.909Z,1018.80
2022-09-20T07:39:56.952Z,1018.75
2022-09-20T07:40:57.556Z,1018.75
2022-09-20T07:41:56.862Z,1018.80
2022-09-20T07:42:57.537Z,1018.78
2022-09-20T07:43:56.841Z,1018.73
2022-09-20T07:44:56.839Z,1018.74
2022-09-20T07:45:56.865Z,1018.75
2022-09-20T07:46:57.755Z,1018.69
2022-09-20T07:47:56.821Z,1018.72
2022-09-20T07:48:57.472Z,1018.69
2022-09-20T07:49:57.451Z,1018.70
2022-09-20T07:50:56.761Z,1018.64
2022-09-20T07:51:57.422Z,1018.68
2022-09-20T07:52:57.432Z,1018.69
2022-09-20T07:53:57.422Z,1018.75
2022-09-20T07:54:57.404Z,1018.79
2022-09-20T07:55:58.153Z,1018.65
2022-09-20T07:56:57.397Z,1018.68
2022-09-20T07:57:57.365Z,1018.66
2022-09-20T07:58:57.365Z,1018.79
2022-09-20T07:59:56.713Z,1018.75
2022-09-20T08:00:56.688Z,1018.75
2022-09-20T08:01:57.358Z,1018.96
2022-09-20T08:02:57.318Z,1019.04
2022-09-20T08:03:58.076Z,1019.11
2022-09-20T08:04:57.305Z,1019.26
2022-09-20T08:05:57.288Z,1019.56
2022-09-20T08:06:57.283Z,1019.58
2022-09-20T08:07:56.630Z,1019.63
2022-09-20T08:08:57.255Z,1019.63
2022-09-20T08:09:56.590Z,1019.05
2022-09-20T08:10:57.235Z,1019.07
2022-09-20T08:11:57.634Z,1018.98
2022-09-20T08:14:07.057Z,1019.10
2022-09-20T08:14:59.450Z,1018.91
2022-09-20T08:15:57.185Z,1018.92
2022-09-20T08:16:56.558Z,1018.91
2022-09-20T08:17:56.481Z,1018.95
2022-09-20T08:18:56.461Z,1018.96
2022-09-20T08:19:57.169Z,1018.99
2022-09-20T08:20:56.468Z,1018.93
2022-09-20T08:21:56.441Z,1019.01
2022-09-20T08:23:21.889Z,1019.06
2022-09-20T08:23:59.394Z,1019.07
2022-09-20T08:24:56.422Z,1019.08
2022-09-20T08:25:57.064Z,1019.10
2022-09-20T08:26:57.027Z,1019.08
2022-09-20T08:27:56.598Z,1019.09
2022-09-20T08:28:56.456Z,1019.04
2022-09-20T08:29:57.036Z,1019.05
2022-09-20T08:30:56.338Z,1019.13
2022-09-20T08:31:57.081Z,1019.06
2022-09-20T08:32:57.073Z,1019.04
2022-09-20T08:33:56.355Z,1019.10
2022-09-20T08:34:56.356Z,1019.06
2022-09-20T08:35:57.713Z,1019.10
2022-09-20T08:36:56.278Z,1019.07
2022-09-20T08:37:56.998Z,1019.05
2022-09-20T08:39:58.404Z,1019.12
2022-09-20T08:40:56.908Z,1019.14
2022-09-20T08:41:56.199Z,1019.13
2022-09-20T08:42:56.319Z,1019.13
2022-09-20T08:43:56.224Z,1019.10
2022-09-20T08:44:59.416Z,1019.10
2022-09-20T08:45:56.888Z,1019.13
2022-09-20T08:46:56.231Z,1019.05
2022-09-20T08:47:58.833Z,1019.21
2022-09-20T08:48:56.822Z,1019.12
2022-09-20T08:49:57.396Z,1019.19
2022-09-20T08:50:56.793Z,1019.15
2022-09-20T08:51:56.793Z,1019.10
2022-09-20T08:53:00.082Z,1019.17
2022-09-20T08:53:56.769Z,1019.22
2022-09-20T08:54:56.092Z,1019.18
2022-09-20T08:55:56.773Z,1019.30
2022-09-20T08:56:56.825Z,1019.41
2022-09-20T08:57:56.734Z,1019.42
2022-09-20T08:58:56.724Z,1019.25
2022-09-20T08:59:56.714Z,1019.05
2022-09-20T09:00:56.736Z,1019.37
2022-09-20T09:01:56.041Z,1019.27
2022-09-20T09:02:56.646Z,1019.15
2022-09-20T09:03:56.666Z,1019.20
2022-09-20T09:04:56.923Z,1019.11
2022-09-20T09:05:55.967Z,1019.06
2022-09-20T09:06:55.954Z,1019.11
2022-09-20T09:07:56.621Z,1019.16
2022-09-20T09:08:56.106Z,1019.13
2022-09-20T09:09:57.375Z,1019.12
2022-09-20T09:10:56.588Z,1019.07
2022-09-20T09:11:56.577Z,1019.08
2022-09-20T09:12:55.973Z,1019.18
2022-09-20T09:13:56.569Z,1019.14
2022-09-20T09:14:56.518Z,1019.11
2022-09-20T09:15:56.528Z,1019.15
2022-09-20T09:16:56.598Z,1019.14
2022-09-20T09:17:56.512Z,1019.10
2022-09-20T09:18:56.513Z,1019.11
2022-09-20T09:19:57.265Z,1019.09
2022-09-20T09:20:56.450Z,1019.12
2022-09-20T09:21:55.806Z,1019.10
2022-09-20T09:22:56.536Z,1019.07
2022-09-20T09:23:56.712Z,1019.07
2022-09-20T09:24:55.775Z,1019.08
2022-09-20T09:25:56.431Z,1019.07
2022-09-20T09:26:55.763Z,1019.08
2022-09-20T09:27:56.403Z,1018.99
2022-09-20T09:28:55.744Z,1019.04
2022-09-20T09:29:56.389Z,1019.02
2022-09-20T09:30:56.378Z,1019.07
2022-09-20T09:31:55.778Z,1019.07
2022-09-20T09:32:56.645Z,1019.13
2022-09-20T09:33:56.348Z,1019.12
2022-09-20T09:34:56.325Z,1019.08
2022-09-20T09:35:56.324Z,1019.14
2022-09-20T09:36:55.649Z,1019.17
2022-09-20T09:37:55.668Z,1019.19
2022-09-20T09:38:56.296Z,1019.18
2022-09-20T09:39:56.395Z,1019.22
2022-09-20T09:40:57.080Z,1019.19
2022-09-20T09:41:55.619Z,1019.23
2022-09-20T09:42:56.247Z,1019.21
2022-09-20T09:43:55.697Z,1019.25
2022-09-20T09:44:55.539Z,1019.23
2022-09-20T09:45:56.989Z,1019.23
2022-09-20T09:46:56.461Z,1019.22
2022-09-20T09:47:55.501Z,1019.25
2022-09-20T09:48:55.544Z,1019.24
2022-09-20T09:50:00.154Z,1019.21
2022-09-20T09:50:57.920Z,1019.24
2022-09-20T09:51:56.150Z,1019.21
2022-09-20T09:52:56.132Z,1019.16
2022-09-20T09:53:56.132Z,1019.21
2022-09-20T09:54:56.123Z,1019.16
2022-09-20T09:55:56.187Z,1019.18
2022-09-20T09:56:56.093Z,1019.17
2022-09-20T09:57:56.089Z,1019.13
2022-09-20T09:58:56.833Z,1019.18
2022-09-20T09:59:56.107Z,1019.17
2022-09-20T10:00:56.457Z,1019.24
2022-09-20T10:01:56.157Z,1019.20
2022-09-20T10:02:55.414Z,1019.18
2022-09-20T10:03:56.020Z,1019.26
2022-09-20T10:04:56.058Z,1019.21
2022-09-20T10:05:55.995Z,1019.26
2022-09-20T10:06:55.986Z,1019.22
2022-09-20T10:07:56.368Z,1019.24
2022-09-20T10:08:55.316Z,1019.22
2022-09-20T10:09:55.968Z,1019.19
2022-09-20T10:10:56.688Z,1019.19
2022-09-20T10:11:55.929Z,1019.22
2022-09-20T10:12:55.247Z,1019.19
2022-09-20T10:13:55.331Z,1019.17
2022-09-20T10:14:55.243Z,1019.14
2022-09-20T10:15:55.902Z,1019.22
2022-09-20T10:16:55.970Z,1019.22
2022-09-20T10:17:55.867Z,1019.17
2022-09-20T10:18:55.860Z,1019.16
2022-09-20T10:19:55.861Z,1019.18
2022-09-20T10:20:55.179Z,1019.18
2022-09-20T10:21:55.829Z,1019.22
2022-09-20T10:23:30.039Z,1019.21
2022-09-20T10:24:03.525Z,1019.18
2022-09-20T10:24:56.166Z,1019.21
2022-09-20T10:25:55.115Z,1019.16
2022-09-20T10:26:55.087Z,1019.19
2022-09-20T10:27:55.765Z,1019.16
2022-09-20T10:28:55.842Z,1019.20
2022-09-20T10:29:55.740Z,1019.10
2022-09-20T10:30:55.181Z,1019.18
2022-09-20T10:31:55.034Z,1019.16
2022-09-20T10:32:55.714Z,1019.18
2022-09-20T10:33:55.695Z,1019.16
2022-09-20T10:34:55.026Z,1019.19
2022-09-20T10:35:55.925Z,1019.14
2022-09-20T10:36:55.666Z,1019.07
2022-09-20T10:37:55.007Z,1019.11
2022-09-20T10:38:55.917Z,1019.07
2022-09-20T10:39:54.999Z,1019.09
2022-09-20T10:40:54.957Z,1019.10
2022-09-20T10:41:55.615Z,1019.07
2022-09-20T10:42:55.987Z,1019.11
2022-09-20T10:43:55.599Z,1019.04
2022-09-20T10:44:55.579Z,1019.05
2022-09-20T10:46:55.940Z,1019.02
2022-09-20T10:47:54.934Z,1019.02
2022-09-20T10:48:55.533Z,1019.08
2022-09-20T10:49:55.519Z,1019.01
2022-09-20T10:50:55.555Z,1019.04
2022-09-20T10:51:55.514Z,1019.05
2022-09-20T10:52:55.494Z,1019.05
2022-09-20T10:53:55.482Z,1019.01
2022-09-20T10:54:55.682Z,1018.95
2022-09-20T10:55:54.792Z,1018.98
2022-09-20T10:56:55.726Z,1019.00
2022-09-20T10:57:55.443Z,1019.00
2022-09-20T10:58:54.778Z,1018.94
2022-09-20T10:59:55.423Z,1018.98
2022-09-20T11:00:54.885Z,1018.98
2022-09-20T11:01:54.836Z,1018.94
2022-09-20T11:02:54.747Z,1018.96
2022-09-20T11:03:54.687Z,1018.95
2022-09-20T11:04:55.366Z,1018.96
2022-09-20T11:05:55.352Z,1018.94
2022-09-20T11:06:54.768Z,1018.95
2022-09-20T11:07:55.349Z,1018.93
2022-09-20T11:08:54.643Z,1018.98
2022-09-20T11:09:55.314Z,1018.98
2022-09-20T11:10:54.606Z,1018.99
2022-09-20T11:11:54.607Z,1019.03
2022-09-20T11:12:55.358Z,1019.02
2022-09-20T11:13:54.974Z,1019.01
2022-09-20T11:14:55.258Z,1018.97
2022-09-20T11:15:54.577Z,1018.97
2022-09-20T11:16:55.289Z,1019.00
2022-09-20T11:17:54.617Z,1018.93
2022-09-20T11:18:55.358Z,1019.00
2022-09-20T11:19:55.439Z,1018.99
2022-09-20T11:20:55.192Z,1019.05
2022-09-20T11:21:55.205Z,1019.01
2022-09-20T11:22:55.941Z,1018.99
2022-09-20T11:23:55.426Z,1018.93
2022-09-20T11:24:55.231Z,1018.96
2022-09-20T11:25:55.401Z,1018.99
2022-09-20T11:26:55.881Z,1018.95
2022-09-20T11:27:54.449Z,1018.90
2022-09-20T11:28:55.282Z,1018.94
2022-09-20T11:29:55.102Z,1018.93
2022-09-20T11:30:55.073Z,1018.96
2022-09-20T11:31:55.133Z,1018.99
2022-09-20T11:32:55.061Z,1018.94
2022-09-20T11:33:54.363Z,1018.98
2022-09-20T11:34:55.043Z,1018.98
2022-09-20T11:35:54.353Z,1018.96
2022-09-20T11:36:55.013Z,1018.99
2022-09-20T11:37:55.013Z,1019.05
2022-09-20T11:38:54.997Z,1019.03
2022-09-20T11:39:55.002Z,1019.09
2022-09-20T11:40:54.295Z,1019.04
2022-09-20T11:41:54.312Z,1019.03
2022-09-20T11:42:54.314Z,1019.03
2022-09-20T11:43:54.937Z,1019.06
2022-09-20T11:44:54.933Z,1019.08
2022-09-20T11:45:54.299Z,1019.05
2022-09-20T11:46:54.265Z,1019.02
2022-09-20T11:47:55.832Z,1019.01
2022-09-20T11:48:54.248Z,1018.98
2022-09-20T11:49:56.187Z,1019.00
2022-09-20T11:50:54.869Z,1019.05
2022-09-20T11:51:54.860Z,1019.08
2022-09-20T11:52:54.851Z,1019.01
2022-09-20T11:53:54.164Z,1019.03
2022-09-20T11:54:54.209Z,1018.99
2022-09-20T11:55:54.162Z,1019.03
2022-09-20T11:56:54.123Z,1019.04
2022-09-20T11:57:54.795Z,1019.08
2022-09-20T11:58:54.150Z,1019.03
2022-09-20T11:59:54.767Z,1019.02
2022-09-20T12:00:54.760Z,1019.03
2022-09-20T12:01:54.111Z,1018.99
2022-09-20T12:02:54.838Z,1018.99
2022-09-20T12:04:20.693Z,1018.98
2022-09-20T12:04:55.044Z,1018.94
2022-09-20T12:05:54.042Z,1018.95
2022-09-20T12:06:54.675Z,1019.00
2022-09-20T12:07:54.087Z,1019.03